createdAt,value
2023-01-20T00:01:43.411Z,99880.03
2023-01-20T00:04:12.018Z,99882.78
2023-01-20T00:06:39.685Z,99880.22
2023-01-20T00:09:10.466Z,99885.56
2023-01-20T00:11:38.317Z,99889.28
2023-01-20T00:14:06.725Z,99898.19
2023-01-20T00:16:34.468Z,99902.69
2023-01-20T00:19:02.241Z,99904.63
2023-01-20T00:21:30.359Z,99903.00
2023-01-20T00:23:58.250Z,99907.31
2023-01-20T00:26:26.110Z,99886.44
2023-01-20T00:28:55.968Z,99909.19
2023-01-20T00:31:30.124Z,99903.91
2023-01-20T00:34:00.241Z,99918.06
2023-01-20T00:36:31.321Z,99912.88
2023-01-20T00:39:03.371Z,99920.03
2023-01-20T00:41:31.851Z,99917.53
2023-01-20T00:44:00.058Z,99916.63
2023-01-20T00:46:28.079Z,99927.22
2023-01-20T00:48:56.267Z,99931.72
2023-01-20T00:51:23.993Z,99927.47
2023-01-20T00:53:51.761Z,99924.06
2023-01-20T00:56:19.638Z,99943.34
2023-01-20T00:58:47.374Z,99925.88
2023-01-20T01:01:15.254Z,99926.06
2023-01-20T01:03:44.268Z,99939.16
2023-01-20T01:06:15.552Z,99954.19
2023-01-20T01:08:43.995Z,99953.50
2023-01-20T01:11:12.922Z,99947.41
2023-01-20T01:13:41.135Z,99948.44
2023-01-20T01:16:14.812Z,99955.50
2023-01-20T01:18:43.255Z,99957.38
2023-01-20T01:21:14.638Z,99962.66
2023-01-20T01:23:43.049Z,99963.94
2023-01-20T01:26:10.769Z,99970.81
2023-01-20T01:28:39.478Z,99966.41
2023-01-20T01:31:08.341Z,99977.56
2023-01-20T01:33:36.546Z,99976.59
2023-01-20T01:36:05.244Z,99983.63
2023-01-20T01:38:32.946Z,99983.59
2023-01-20T01:41:01.680Z,99987.94
2023-01-20T01:43:36.707Z,99991.28
2023-01-20T01:46:07.688Z,99991.28
2023-01-20T01:48:43.813Z,99998.25
2023-01-20T01:51:25.887Z,99999.16
2023-01-20T01:54:02.094Z,99993.94
2023-01-20T01:56:31.087Z,99988.78
2023-01-20T01:59:02.606Z,99995.56
2023-01-20T02:01:36.911Z,99995.56
2023-01-20T02:04:13.002Z,99992.00
2023-01-20T02:06:49.249Z,100001.53
2023-01-20T02:09:17.629Z,100007.63
2023-01-20T02:11:52.757Z,100009.28
2023-01-20T02:14:25.947Z,100003.03
2023-01-20T02:17:44.793Z,100013.47
2023-01-20T02:20:54.323Z,100004.69
2023-01-20T02:24:01.251Z,100010.88
2023-01-20T02:26:47.381Z,100015.13
2023-01-20T02:30:08.077Z,100013.44
2023-01-20T02:33:11.502Z,100017.00
2023-01-20T02:35:46.831Z,100021.44
2023-01-20T02:38:32.391Z,100032.84
2023-01-20T02:41:26.087Z,100028.44
2023-01-20T02:44:42.532Z,100028.53
2023-01-20T02:47:51.852Z,100020.66
2023-01-20T02:50:52.646Z,100026.69
2023-01-20T02:53:22.309Z,100020.69
2023-01-20T02:55:54.362Z,100031.91
2023-01-20T02:58:49.054Z,100035.31
2023-01-20T03:01:40.270Z,100040.63
2023-01-20T03:04:12.293Z,100043.22
2023-01-20T03:06:49.508Z,100038.81
2023-01-20T03:09:46.580Z,100053.66
2023-01-20T03:12:42.895Z,100058.97
2023-01-20T03:15:12.234Z,100052.06
2023-01-20T03:17:40.817Z,100057.38
2023-01-20T03:20:09.706Z,100056.53
2023-01-20T03:22:37.695Z,100060.09
2023-01-20T03:25:07.227Z,100073.38
2023-01-20T03:27:35.005Z,100060.31
2023-01-20T03:30:03.379Z,100075.16
2023-01-20T03:32:32.179Z,100077.84
2023-01-20T03:35:00.043Z,100063.03
2023-01-20T03:37:27.868Z,100077.94
2023-01-20T03:39:56.420Z,100072.75
2023-01-20T03:42:30.669Z,100089.41
2023-01-20T03:45:09.401Z,100093.72
2023-01-20T03:48:20.924Z,100099.91
2023-01-20T03:51:10.067Z,100088.56
2023-01-20T03:54:09.481Z,100091.13
2023-01-20T03:56:56.426Z,100092.91
2023-01-20T03:59:25.122Z,100099.03
2023-01-20T04:01:54.272Z,100108.56
2023-01-20T04:04:22.554Z,100099.88
2023-01-20T04:06:54.134Z,100108.59
2023-01-20T04:09:26.083Z,100113.13
2023-01-20T04:11:54.388Z,100108.66
2023-01-20T04:14:22.489Z,100110.34
2023-01-20T04:16:57.504Z,100110.28
2023-01-20T04:19:26.633Z,100115.53
2023-01-20T04:22:19.424Z,100119.00
2023-01-20T04:25:02.102Z,100126.84
2023-01-20T04:27:29.946Z,100116.31
2023-01-20T04:29:57.937Z,100121.56
2023-01-20T04:32:25.825Z,100133.00
2023-01-20T04:34:53.825Z,100135.69
2023-01-20T04:37:21.675Z,100140.06
2023-01-20T04:39:49.491Z,100127.03
2023-01-20T04:42:17.117Z,100124.47
2023-01-20T04:44:45.386Z,100124.50
2023-01-20T04:47:13.108Z,100139.44
2023-01-20T04:49:40.929Z,100134.25
2023-01-20T04:52:08.590Z,100143.81
2023-01-20T04:54:36.394Z,100142.09
2023-01-20T04:57:04.172Z,100142.16
2023-01-20T04:59:31.866Z,100140.38
2023-01-20T05:01:59.842Z,100143.91
2023-01-20T05:04:27.723Z,100156.16
2023-01-20T05:06:55.421Z,100162.38
2023-01-20T05:09:23.123Z,100160.72
2023-01-20T05:11:50.957Z,100165.03
2023-01-20T05:14:18.704Z,100165.13
2023-01-20T05:16:47.224Z,100164.31
2023-01-20T05:19:15.025Z,100167.72
2023-01-20T05:21:42.979Z,100181.78
2023-01-20T05:24:10.894Z,100175.66
2023-01-20T05:26:38.869Z,100172.22
2023-01-20T05:29:06.742Z,100184.53
2023-01-20T05:31:34.624Z,100188.91
2023-01-20T05:34:02.671Z,100190.72
2023-01-20T05:36:30.707Z,100186.34
2023-01-20T05:38:58.547Z,100192.44
2023-01-20T05:41:26.603Z,100197.75
2023-01-20T05:43:54.712Z,100191.69
2023-01-20T05:46:22.710Z,100189.94
2023-01-20T05:48:50.526Z,100195.28
2023-01-20T05:51:18.339Z,100207.59
2023-01-20T05:53:46.024Z,100210.28
2023-01-20T05:56:15.930Z,100209.44
2023-01-20T05:58:43.831Z,100216.44
2023-01-20T06:01:14.312Z,100211.22
2023-01-20T06:03:42.448Z,100220.03
2023-01-20T06:06:15.441Z,100221.81
2023-01-20T06:08:43.587Z,100227.09
2023-01-20T06:11:14.382Z,100232.38
2023-01-20T06:13:43.296Z,100223.66
2023-01-20T06:16:11.033Z,100235.94
2023-01-20T06:18:38.846Z,100239.50
2023-01-20T06:21:06.716Z,100222.94
2023-01-20T06:23:34.741Z,100240.44
2023-01-20T06:26:14.006Z,100243.09
2023-01-20T06:28:42.473Z,100241.47
2023-01-20T06:31:16.183Z,100258.19
2023-01-20T06:33:44.264Z,100260.03
2023-01-20T06:36:17.484Z,100254.84
2023-01-20T06:38:50.682Z,100262.75
2023-01-20T06:41:20.342Z,100264.56
2023-01-20T06:43:50.112Z,100263.78
2023-01-20T06:46:18.078Z,100270.81
2023-01-20T06:48:46.658Z,100266.50
2023-01-20T06:51:18.065Z,100272.63
2023-01-20T06:53:46.326Z,100280.53
2023-01-20T06:56:15.497Z,100284.97
2023-01-20T06:58:43.451Z,100285.00
2023-01-20T07:01:15.555Z,100297.28
2023-01-20T07:03:44.858Z,100296.44
2023-01-20T07:06:32.976Z,100292.97
2023-01-20T07:09:01.825Z,100300.91
2023-01-20T07:11:31.441Z,100300.03
2023-01-20T07:13:59.402Z,100303.53
2023-01-20T07:16:27.170Z,100301.84
2023-01-20T07:18:55.175Z,100306.25
2023-01-20T07:21:26.184Z,100303.59
2023-01-20T07:23:54.333Z,100309.75
2023-01-20T07:26:26.979Z,100309.78
2023-01-20T07:28:54.781Z,100321.22
2023-01-20T07:31:25.724Z,100324.72
2023-01-20T07:33:56.350Z,100336.16
2023-01-20T07:36:25.033Z,100343.19
2023-01-20T07:38:54.283Z,100340.59
2023-01-20T07:41:22.912Z,100337.97
2023-01-20T07:43:53.226Z,100340.63
2023-01-20T07:46:21.040Z,100356.41
2023-01-20T07:48:48.852Z,100346.78
2023-01-20T07:51:17.543Z,100362.50
2023-01-20T07:53:48.241Z,100355.50
2023-01-20T07:56:26.675Z,100351.16
2023-01-20T07:58:55.497Z,100365.22
2023-01-20T08:01:27.944Z,100368.72
2023-01-20T08:03:57.449Z,100374.84
2023-01-20T08:06:26.414Z,100379.28
2023-01-20T08:08:57.065Z,100386.28
2023-01-20T08:11:26.233Z,100386.31
2023-01-20T08:13:53.905Z,100375.78
2023-01-20T08:16:21.848Z,100386.28
2023-01-20T08:18:49.683Z,100390.69
2023-01-20T08:21:32.026Z,100401.19
2023-01-20T08:24:03.163Z,100400.34
2023-01-20T08:26:31.910Z,100398.63
2023-01-20T08:29:06.177Z,100402.09
2023-01-20T08:31:34.613Z,100406.44
2023-01-20T08:34:03.357Z,100398.53
2023-01-20T08:36:35.182Z,100399.38
2023-01-20T08:39:07.079Z,100406.38
2023-01-20T08:41:38.417Z,100426.47
2023-01-20T08:44:26.070Z,100420.31
2023-01-20T08:46:58.005Z,100428.16
2023-01-20T08:49:27.205Z,100415.88
2023-01-20T08:51:56.182Z,100429.81
2023-01-20T08:54:29.370Z,100438.56
2023-01-20T08:56:57.316Z,100435.00
2023-01-20T08:59:25.040Z,100445.47
2023-01-20T09:01:52.904Z,100438.47
2023-01-20T09:04:20.903Z,100448.00
2023-01-20T09:06:50.355Z,100453.22
2023-01-20T09:09:21.980Z,100450.53
2023-01-20T09:11:52.986Z,100452.34
2023-01-20T09:14:24.255Z,100452.28
2023-01-20T09:16:52.390Z,100452.28
2023-01-20T09:19:20.439Z,100457.47
2023-01-20T09:21:51.508Z,100463.56
2023-01-20T09:24:19.251Z,100462.69
2023-01-20T09:26:49.168Z,100466.13
2023-01-20T09:29:19.642Z,100469.56
2023-01-20T09:31:59.143Z,100467.81
2023-01-20T09:34:29.424Z,100462.50
2023-01-20T09:37:21.395Z,100470.34
2023-01-20T09:40:08.615Z,100468.59
2023-01-20T09:43:44.878Z,100472.91
2023-01-20T09:47:07.845Z,100486.91
2023-01-20T09:50:05.926Z,100487.72
2023-01-20T09:52:55.795Z,100483.31
2023-01-20T09:55:44.928Z,100494.69
2023-01-20T09:58:27.559Z,100485.00
2023-01-20T10:01:30.615Z,100485.81
2023-01-20T10:04:32.893Z,100480.53
2023-01-20T10:07:12.564Z,100486.56
2023-01-20T10:09:57.361Z,100490.03
2023-01-20T10:12:34.920Z,100487.31
2023-01-20T10:15:23.061Z,100491.66
2023-01-20T10:18:15.314Z,100494.19
2023-01-20T10:20:58.257Z,100488.00
2023-01-20T10:23:40.067Z,100490.59
2023-01-20T10:26:34.004Z,100493.13
2023-01-20T10:29:06.783Z,100479.09
2023-01-20T10:31:45.860Z,100487.78
2023-01-20T10:34:20.092Z,100493.91
2023-01-20T10:37:03.111Z,100489.38
2023-01-20T10:40:24.301Z,100493.75
2023-01-20T10:43:01.807Z,100470.22
2023-01-20T10:45:52.272Z,100497.16
2023-01-20T10:49:00.203Z,100492.75
2023-01-20T10:52:08.173Z,100497.13
2023-01-20T10:55:01.940Z,100491.78
2023-01-20T10:57:29.929Z,100484.75
2023-01-20T11:00:17.647Z,100490.78
2023-01-20T11:02:49.148Z,100477.56
2023-01-20T11:05:25.413Z,100494.03
2023-01-20T11:07:56.327Z,100489.63
2023-01-20T11:10:32.779Z,100482.53
2023-01-20T11:13:02.748Z,100486.88
2023-01-20T11:15:38.666Z,100489.41
2023-01-20T11:18:15.639Z,100500.69
2023-01-20T11:21:03.946Z,100488.34
2023-01-20T11:23:52.271Z,100502.31
2023-01-20T11:26:35.946Z,100510.31
2023-01-20T11:29:28.996Z,100497.97
2023-01-20T11:31:59.567Z,100503.25
2023-01-20T11:34:36.295Z,100501.53
2023-01-20T11:37:07.453Z,100512.69
2023-01-20T11:39:44.158Z,100512.53
2023-01-20T11:42:23.606Z,100517.59
2023-01-20T11:44:55.080Z,100510.34
2023-01-20T11:47:37.390Z,100510.22
2023-01-20T11:50:08.230Z,100511.00
2023-01-20T11:52:41.530Z,100505.78
2023-01-20T11:55:25.067Z,100503.88
2023-01-20T11:58:03.691Z,100510.06
2023-01-20T12:00:44.653Z,100495.94
2023-01-20T12:03:44.558Z,100501.88
2023-01-20T12:06:33.166Z,100505.31
2023-01-20T12:09:12.347Z,100494.69
2023-01-20T12:11:59.783Z,100501.63
2023-01-20T12:14:49.267Z,100494.53
2023-01-20T12:17:42.151Z,100500.59
2023-01-20T12:20:54.592Z,100485.88
2023-01-20T12:23:58.798Z,100506.94
2023-01-20T12:26:28.949Z,100507.91
2023-01-20T12:29:36.681Z,100504.31
2023-01-20T12:32:05.148Z,100505.34
2023-01-20T12:34:34.339Z,100495.59
2023-01-20T12:37:28.753Z,100512.19
2023-01-20T12:40:30.689Z,100513.06
2023-01-20T12:43:17.021Z,100515.13
2023-01-20T12:46:17.311Z,100512.34
2023-01-20T12:49:15.976Z,100514.91
2023-01-20T12:52:37.294Z,100514.91
2023-01-20T12:55:31.990Z,100510.53
2023-01-20T12:58:17.459Z,100517.31
2023-01-20T13:01:13.908Z,100518.97
2023-01-20T13:04:30.723Z,100522.47
2023-01-20T13:07:52.527Z,100512.84
2023-01-20T13:10:37.337Z,100518.09
2023-01-20T13:13:56.882Z,100519.00
2023-01-20T13:17:03.822Z,100518.91
2023-01-20T13:19:37.649Z,100509.19
2023-01-20T13:22:22.550Z,100504.66
2023-01-20T13:24:57.350Z,100509.00
2023-01-20T13:27:32.368Z,100515.06
2023-01-20T13:30:04.480Z,100509.00
2023-01-20T13:32:48.788Z,100495.75
2023-01-20T13:35:41.183Z,100508.84
2023-01-20T13:38:30.566Z,100504.63
2023-01-20T13:41:03.438Z,100508.22
2023-01-20T13:43:36.974Z,100506.44
2023-01-20T13:46:18.897Z,100515.97
2023-01-20T13:49:23.758Z,100512.47
2023-01-20T13:51:51.686Z,100519.59
2023-01-20T13:54:25.703Z,100518.56
2023-01-20T13:57:13.368Z,100516.88
2023-01-20T13:59:41.187Z,100526.63
2023-01-20T14:02:20.349Z,100524.78
2023-01-20T14:04:49.032Z,100524.84
2023-01-20T14:07:30.992Z,100518.72
2023-01-20T14:10:01.267Z,100528.41
2023-01-20T14:12:29.262Z,100530.28
2023-01-20T14:14:57.073Z,100532.06
2023-01-20T14:17:25.395Z,100523.38
2023-01-20T14:19:55.929Z,100530.41
2023-01-20T14:22:31.999Z,100530.50
2023-01-20T14:25:01.677Z,100527.91
2023-01-20T14:27:37.392Z,100535.81
2023-01-20T14:30:26.821Z,100539.41
2023-01-20T14:32:54.724Z,100542.25
2023-01-20T14:35:34.474Z,100538.72
2023-01-20T14:38:02.787Z,100539.63
2023-01-20T14:40:34.765Z,100546.63
2023-01-20T14:43:17.088Z,100543.00
2023-01-20T14:46:05.554Z,100543.94
2023-01-20T14:48:35.189Z,100533.25
2023-01-20T14:51:05.847Z,100537.66
2023-01-20T14:53:33.844Z,100563.94
2023-01-20T14:56:17.029Z,100556.84
2023-01-20T14:58:48.643Z,100560.41
2023-01-20T15:01:25.842Z,100554.13
2023-01-20T15:03:59.614Z,100555.06
2023-01-20T15:06:27.945Z,100563.84
2023-01-20T15:09:06.463Z,100559.38
2023-01-20T15:11:36.418Z,100563.75
2023-01-20T15:14:05.109Z,100553.94
2023-01-20T15:16:36.383Z,100549.44
2023-01-20T15:19:16.552Z,100559.13
2023-01-20T15:21:49.676Z,100558.25
2023-01-20T15:24:21.330Z,100553.88
2023-01-20T15:26:54.363Z,100555.66
2023-01-20T15:29:31.337Z,100547.75
2023-01-20T15:32:03.159Z,100556.53
2023-01-20T15:34:30.890Z,100553.91
2023-01-20T15:36:58.880Z,100562.78
2023-01-20T15:39:31.700Z,100556.69
2023-01-20T15:41:59.547Z,100557.66
2023-01-20T15:44:27.619Z,100563.00
2023-01-20T15:46:57.697Z,100566.59
2023-01-20T15:49:25.785Z,100572.88
2023-01-20T15:51:53.793Z,100565.84
2023-01-20T15:54:21.562Z,100564.25
2023-01-20T15:56:49.262Z,100570.50
2023-01-20T15:59:21.096Z,100578.34
2023-01-20T16:01:52.093Z,100570.63
2023-01-20T16:04:20.865Z,100594.44
2023-01-20T16:06:48.754Z,100591.84
2023-01-20T16:09:27.474Z,100597.19
2023-01-20T16:11:56.253Z,100595.50
2023-01-20T16:14:23.972Z,100598.19
2023-01-20T16:16:54.613Z,100598.19
2023-01-20T16:19:22.343Z,100606.19
2023-01-20T16:21:49.983Z,100609.72
2023-01-20T16:24:17.696Z,100598.25
2023-01-20T16:26:47.071Z,100602.69
2023-01-20T16:29:14.978Z,100607.03
2023-01-20T16:31:42.861Z,100607.94
2023-01-20T16:34:10.674Z,100614.06
2023-01-20T16:36:38.408Z,100616.66
2023-01-20T16:39:06.213Z,100613.16
2023-01-20T16:41:36.112Z,100614.97
2023-01-20T16:44:04.193Z,100614.06
2023-01-20T16:46:35.465Z,100618.44
2023-01-20T16:49:03.508Z,100608.84
2023-01-20T16:51:32.580Z,100627.16
2023-01-20T16:54:00.447Z,100623.66
2023-01-20T16:56:31.549Z,100622.81
2023-01-20T16:59:01.630Z,100617.59
2023-01-20T17:01:30.591Z,100620.22
2023-01-20T17:04:01.658Z,100629.84
2023-01-20T17:06:34.070Z,100628.19
2023-01-20T17:09:05.181Z,100625.59
2023-01-20T17:11:38.451Z,100627.28
2023-01-20T17:14:09.642Z,100639.69
2023-01-20T17:16:38.972Z,100631.00
2023-01-20T17:19:07.179Z,100635.38
2023-01-20T17:21:38.597Z,100636.25
2023-01-20T17:24:07.149Z,100635.44
2023-01-20T17:26:37.055Z,100637.13
2023-01-20T17:29:05.565Z,100644.97
2023-01-20T17:31:36.549Z,100636.19
2023-01-20T17:34:06.667Z,100650.19
2023-01-20T17:36:35.112Z,100651.06
2023-01-20T17:39:04.674Z,100656.38
2023-01-20T17:41:33.667Z,100647.56
2023-01-20T17:44:01.696Z,100646.69
2023-01-20T17:46:30.478Z,100654.56
2023-01-20T17:49:01.575Z,100653.59
2023-01-20T17:51:30.224Z,100650.16
2023-01-20T17:53:58.849Z,100652.78
2023-01-20T17:56:27.134Z,100658.91
2023-01-20T17:58:54.999Z,100660.72
2023-01-20T18:01:26.966Z,100666.78
2023-01-20T18:03:58.713Z,100668.69
2023-01-20T18:06:27.172Z,100670.66
2023-01-20T18:08:58.878Z,100650.31
2023-01-20T18:11:30.271Z,100664.31
2023-01-20T18:14:00.550Z,100671.31
2023-01-20T18:16:32.761Z,100672.22
2023-01-20T18:19:01.419Z,100674.91
2023-01-20T18:21:37.603Z,100681.03
2023-01-20T18:24:07.581Z,100683.75
2023-01-20T18:26:38.141Z,100678.38
2023-01-20T18:29:10.456Z,100675.72
2023-01-20T18:31:38.610Z,100678.44
2023-01-20T18:34:10.805Z,100675.72
2023-01-20T18:36:48.530Z,100683.63
2023-01-20T18:39:24.967Z,100681.88
2023-01-20T18:41:53.997Z,100680.06
2023-01-20T18:44:23.208Z,100680.94
2023-01-20T18:46:51.252Z,100687.94
2023-01-20T18:49:19.151Z,100688.84
2023-01-20T18:51:49.001Z,100688.97
2023-01-20T18:54:18.918Z,100696.00
2023-01-20T18:56:47.089Z,100686.47
2023-01-20T18:59:14.973Z,100685.63
2023-01-20T19:01:42.928Z,100693.44
2023-01-20T19:04:13.325Z,100696.97
2023-01-20T19:06:44.440Z,100689.03
2023-01-20T19:09:16.054Z,100684.69
2023-01-20T19:11:43.880Z,100694.38
2023-01-20T19:14:14.806Z,100690.88
2023-01-20T19:16:45.269Z,100703.25
2023-01-20T19:19:13.582Z,100709.50
2023-01-20T19:21:42.157Z,100711.25
2023-01-20T19:24:20.321Z,100700.63
2023-01-20T19:26:48.295Z,100707.84
2023-01-20T19:29:17.518Z,100714.97
2023-01-20T19:31:45.516Z,100707.13
2023-01-20T19:34:13.449Z,100714.13
2023-01-20T19:36:41.181Z,100716.81
2023-01-20T19:39:09.157Z,100721.22
2023-01-20T19:41:38.828Z,100727.41
2023-01-20T19:44:07.715Z,100720.47
2023-01-20T19:46:38.924Z,100719.59
2023-01-20T19:49:07.303Z,100707.28
2023-01-20T19:51:36.323Z,100723.09
2023-01-20T19:54:05.807Z,100712.66
2023-01-20T19:56:35.687Z,100705.59
2023-01-20T19:59:05.935Z,100714.38
2023-01-20T20:01:37.035Z,100721.31
2023-01-20T20:04:11.406Z,100715.22
2023-01-20T20:06:45.648Z,100708.28
2023-01-20T20:09:19.983Z,100727.56
2023-01-20T20:11:49.028Z,100718.78
2023-01-20T20:14:19.342Z,100713.47
2023-01-20T20:16:47.955Z,100733.75
2023-01-20T20:19:18.925Z,100729.38
2023-01-20T20:21:47.317Z,100725.97
2023-01-20T20:24:18.010Z,100722.44
2023-01-20T20:26:46.774Z,100741.03
2023-01-20T20:29:17.259Z,100723.47
2023-01-20T20:31:45.269Z,100728.75
2023-01-20T20:34:17.687Z,100724.34
2023-01-20T20:36:46.133Z,100732.31
2023-01-20T20:39:17.259Z,100732.28
2023-01-20T20:41:46.018Z,100731.47
2023-01-20T20:44:14.540Z,100744.69
2023-01-20T20:46:43.394Z,100744.69
2023-01-20T20:49:15.631Z,100742.03
2023-01-20T20:51:43.810Z,100750.00
2023-01-20T20:54:15.242Z,100745.66
2023-01-20T20:56:43.835Z,100743.13
2023-01-20T20:59:11.608Z,100740.56
2023-01-20T21:01:39.505Z,100744.97
2023-01-20T21:04:10.352Z,100754.63
2023-01-20T21:06:38.003Z,100748.56
2023-01-20T21:09:05.801Z,100761.78
2023-01-20T21:11:33.802Z,100760.91
2023-01-20T21:14:01.870Z,100752.16
2023-01-20T21:16:29.777Z,100767.09
2023-01-20T21:18:59.271Z,100757.47
2023-01-20T21:21:30.660Z,100756.56
2023-01-20T21:23:59.755Z,100760.94
2023-01-20T21:26:30.718Z,100757.38
2023-01-20T21:29:03.700Z,100767.06
2023-01-20T21:31:32.131Z,100766.16
2023-01-20T21:34:00.998Z,100768.78
2023-01-20T21:36:31.293Z,100768.78
2023-01-20T21:38:59.997Z,100766.19
2023-01-20T21:41:27.915Z,100770.59
2023-01-20T21:44:14.469Z,100778.53
2023-01-20T21:46:42.562Z,100777.72
2023-01-20T21:49:29.139Z,100780.38
2023-01-20T21:52:15.751Z,100769.81
2023-01-20T21:54:45.076Z,100781.19
2023-01-20T21:57:14.542Z,100779.44
2023-01-20T21:59:42.861Z,100777.66
2023-01-20T22:02:13.867Z,100782.00
2023-01-20T22:04:42.173Z,100784.66
2023-01-20T22:07:10.430Z,100785.53
2023-01-20T22:09:38.829Z,100794.28
2023-01-20T22:12:07.248Z,100789.88
2023-01-20T22:14:35.152Z,100792.56
2023-01-20T22:17:03.080Z,100800.47
2023-01-20T22:19:31.629Z,100802.19
2023-01-20T22:22:01.297Z,100796.91
2023-01-20T22:24:30.058Z,100810.19
2023-01-20T22:26:58.455Z,100807.56
2023-01-20T22:29:26.203Z,100809.34
2023-01-20T22:31:55.573Z,100812.88
2023-01-20T22:34:23.387Z,100817.25
2023-01-20T22:36:51.156Z,100817.22
2023-01-20T22:39:19.041Z,100818.94
2023-01-20T22:41:46.786Z,100827.69
2023-01-20T22:44:14.852Z,100821.50
2023-01-20T22:46:42.546Z,100824.97
2023-01-20T22:49:12.498Z,100838.13
2023-01-20T22:51:40.445Z,100841.63
2023-01-20T22:54:10.771Z,100836.34
2023-01-20T22:56:39.418Z,100844.25
2023-01-20T22:59:07.228Z,100842.50
2023-01-20T23:01:35.924Z,100846.94
2023-01-20T23:04:06.281Z,100846.97
2023-01-20T23:06:36.340Z,100848.81
2023-01-20T23:09:08.457Z,100843.53
2023-01-20T23:11:38.233Z,100852.34
2023-01-20T23:14:07.296Z,100847.97
2023-01-20T23:16:35.176Z,100844.47
2023-01-20T23:19:03.196Z,100851.50
2023-01-20T23:21:31.628Z,100850.69
2023-01-20T23:23:59.652Z,100834.03
2023-01-20T23:26:30.041Z,100841.09
2023-01-20T23:28:57.869Z,100843.78
2023-01-20T23:31:28.414Z,100845.63
2023-01-20T23:33:56.238Z,100845.63
2023-01-20T23:36:25.916Z,100845.63
2023-01-20T23:38:55.838Z,100838.63
2023-01-20T23:41:24.783Z,100850.97
2023-01-20T23:43:52.569Z,100840.50
2023-01-20T23:46:20.628Z,100855.44
2023-01-20T23:48:48.689Z,100857.22
2023-01-20T23:51:16.675Z,100859.84
2023-01-20T23:53:44.846Z,100858.09
2023-01-20T23:56:17.678Z,100837.91
2023-01-20T23:58:45.901Z,100859.06
